sensor_id;sensor_type;location;lat;lon;timestamp;P1;durP1;ratioP1;P2;durP2;ratioP2
53925;SDS011;39836;52.754;6.866;2023-07-20T09:59:19;3.08;;;1.00;;
53925;SDS011;39836;52.754;6.866;2023-07-20T10:01:45;4.32;;;1.17;;
53925;SDS011;39836;52.754;6.866;2023-07-20T10:04:12;3.55;;;0.98;;
53925;SDS011;39836;52.754;6.866;2023-07-20T10:06:42;1.30;;;0.90;;
53925;SDS011;39836;52.754;6.866;2023-07-20T10:09:08;4.55;;;0.98;;
53925;SDS011;39836;52.754;6.866;2023-07-20T10:11:37;2.80;;;0.80;;
53925;SDS011;39836;52.754;6.866;2023-07-20T10:14:08;2.33;;;0.90;;
53925;SDS011;39836;52.754;6.866;2023-07-20T10:16:39;2.28;;;0.77;;
53925;SDS011;39836;52.754;6.866;2023-07-20T10:19:22;1.63;;;0.90;;
53925;SDS011;39836;52.754;6.866;2023-07-20T10:21:55;1.95;;;0.90;;
53925;SDS011;39836;52.754;6.866;2023-07-20T10:24:25;3.97;;;1.05;;
53925;SDS011;39836;52.754;6.866;2023-07-20T10:26:52;2.40;;;0.88;;
53925;SDS011;39836;52.754;6.866;2023-07-20T10:29:20;2.97;;;1.33;;
53925;SDS011;39836;52.754;6.866;2023-07-20T10:31:48;4.80;;;2.28;;
53925;SDS011;39836;52.754;6.866;2023-07-20T10:34:14;2.13;;;1.00;;
53925;SDS011;39836;52.754;6.866;2023-07-20T10:36:46;4.10;;;0.90;;
53925;SDS011;39836;52.754;6.866;2023-07-20T10:39:25;1.95;;;1.05;;
53925;SDS011;39836;52.754;6.866;2023-07-20T10:41:59;2.00;;;0.90;;
53925;SDS011;39836;52.754;6.866;2023-07-20T10:44:31;3.72;;;0.90;;
53925;SDS011;39836;52.754;6.866;2023-07-20T10:47:00;2.33;;;1.13;;
53925;SDS011;39836;52.754;6.866;2023-07-20T10:49:27;5.45;;;1.20;;
53925;SDS011;39836;52.754;6.866;2023-07-20T10:51:57;4.60;;;1.35;;
53925;SDS011;39836;52.754;6.866;2023-07-20T10:56:50;5.20;;;2.15;;
53925;SDS011;39836;52.754;6.866;2023-07-20T11:01:57;5.25;;;1.60;;
53925;SDS011;39836;52.754;6.866;2023-07-20T11:07:06;4.35;;;1.23;;
53925;SDS011;39836;52.754;6.866;2023-07-20T11:09:36;1.67;;;1.17;;
53925;SDS011;39836;52.754;6.866;2023-07-20T11:12:13;2.88;;;1.20;;
53925;SDS011;39836;52.754;6.866;2023-07-20T11:14:43;3.03;;;1.20;;
53925;SDS011;39836;52.754;6.866;2023-07-20T11:17:19;2.97;;;1.63;;
53925;SDS011;39836;52.754;6.866;2023-07-20T11:19:55;3.90;;;1.27;;
53925;SDS011;39836;52.754;6.866;2023-07-20T11:22:22;2.17;;;1.17;;
53925;SDS011;39836;52.754;6.866;2023-07-20T11:24:48;3.55;;;1.35;;
53925;SDS011;39836;52.754;6.866;2023-07-20T11:27:16;2.22;;;1.10;;
53925;SDS011;39836;52.754;6.866;2023-07-20T11:29:47;1.92;;;0.90;;
53925;SDS011;39836;52.754;6.866;2023-07-20T11:32:19;0.95;;;0.80;;
53925;SDS011;39836;52.754;6.866;2023-07-20T11:34:47;2.63;;;0.73;;
53925;SDS011;39836;52.754;6.866;2023-07-20T11:37:13;0.98;;;0.73;;
53925;SDS011;39836;52.754;6.866;2023-07-20T11:39:39;2.42;;;0.80;;
53925;SDS011;39836;52.754;6.866;2023-07-20T11:42:05;1.80;;;0.77;;
53925;SDS011;39836;52.754;6.866;2023-07-20T11:44:32;2.28;;;0.80;;
53925;SDS011;39836;52.754;6.866;2023-07-20T11:47:06;1.08;;;0.85;;
53925;SDS011;39836;52.754;6.866;2023-07-20T11:49:35;2.05;;;0.98;;
53925;SDS011;39836;52.754;6.866;2023-07-20T11:52:10;3.50;;;1.10;;
53925;SDS011;39836;52.754;6.866;2023-07-20T11:54:40;0.90;;;0.77;;
53925;SDS011;39836;52.754;6.866;2023-07-20T11:57:07;2.92;;;1.02;;
53925;SDS011;39836;52.754;6.866;2023-07-20T11:59:52;2.78;;;1.17;;
53925;SDS011;39836;52.754;6.866;2023-07-20T12:02:29;3.90;;;1.30;;
53925;SDS011;39836;52.754;6.866;2023-07-20T12:04:55;5.28;;;1.35;;
53925;SDS011;39836;52.754;6.866;2023-07-20T12:07:21;6.50;;;1.25;;
53925;SDS011;39836;52.754;6.866;2023-07-20T12:10:06;3.70;;;1.58;;
53925;SDS011;39836;52.754;6.866;2023-07-20T12:12:43;3.10;;;1.60;;
53925;SDS011;39836;52.754;6.866;2023-07-20T12:15:13;3.10;;;1.42;;
53925;SDS011;39836;52.754;6.866;2023-07-20T12:17:50;5.15;;;1.50;;
53925;SDS011;39836;52.754;6.866;2023-07-20T12:20:27;3.00;;;1.33;;
53925;SDS011;39836;52.754;6.866;2023-07-20T12:25:21;2.00;;;1.20;;
53925;SDS011;39836;52.754;6.866;2023-07-20T12:27:47;5.03;;;1.50;;
53925;SDS011;39836;52.754;6.866;2023-07-20T12:30:13;3.45;;;1.52;;
53925;SDS011;39836;52.754;6.866;2023-07-20T12:32:39;5.35;;;1.20;;
53925;SDS011;39836;52.754;6.866;2023-07-20T12:35:05;2.65;;;1.05;;
53925;SDS011;39836;52.754;6.866;2023-07-20T12:37:31;3.45;;;1.40;;
53925;SDS011;39836;52.754;6.866;2023-07-20T12:39:57;2.33;;;1.08;;
53925;SDS011;39836;52.754;6.866;2023-07-20T12:42:23;3.97;;;1.20;;
53925;SDS011;39836;52.754;6.866;2023-07-20T12:44:49;2.08;;;1.10;;
53925;SDS011;39836;52.754;6.866;2023-07-20T12:47:16;3.13;;;1.10;;
53925;SDS011;39836;52.754;6.866;2023-07-20T12:49:43;3.28;;;1.10;;
53925;SDS011;39836;52.754;6.866;2023-07-20T12:52:10;3.78;;;1.13;;
53925;SDS011;39836;52.754;6.866;2023-07-20T12:54:36;2.92;;;1.40;;
53925;SDS011;39836;52.754;6.866;2023-07-20T12:57:02;5.70;;;1.10;;
53925;SDS011;39836;52.754;6.866;2023-07-20T12:59:28;3.50;;;0.90;;
53925;SDS011;39836;52.754;6.866;2023-07-20T13:01:54;3.15;;;1.20;;
53925;SDS011;39836;52.754;6.866;2023-07-20T13:04:20;1.83;;;0.82;;
53925;SDS011;39836;52.754;6.866;2023-07-20T13:06:46;3.95;;;1.27;;
53925;SDS011;39836;52.754;6.866;2023-07-20T13:09:11;2.80;;;1.17;;
53925;SDS011;39836;52.754;6.866;2023-07-20T13:11:37;2.97;;;1.10;;
53925;SDS011;39836;52.754;6.866;2023-07-20T13:14:03;1.58;;;0.80;;
53925;SDS011;39836;52.754;6.866;2023-07-20T13:16:28;2.67;;;1.02;;
53925;SDS011;39836;52.754;6.866;2023-07-20T13:18:54;2.70;;;1.30;;
53925;SDS011;39836;52.754;6.866;2023-07-20T13:21:20;3.58;;;1.27;;
53925;SDS011;39836;52.754;6.866;2023-07-20T13:23:47;3.70;;;0.93;;
53925;SDS011;39836;52.754;6.866;2023-07-20T13:26:14;3.00;;;1.00;;
53925;SDS011;39836;52.754;6.866;2023-07-20T13:28:41;3.65;;;1.00;;
53925;SDS011;39836;52.754;6.866;2023-07-20T13:31:06;4.28;;;1.00;;
53925;SDS011;39836;52.754;6.866;2023-07-20T13:33:35;3.97;;;1.20;;
53925;SDS011;39836;52.754;6.866;2023-07-20T13:36:01;2.60;;;1.05;;
53925;SDS011;39836;52.754;6.866;2023-07-20T13:38:27;3.10;;;1.48;;
53925;SDS011;39836;52.754;6.866;2023-07-20T13:40:52;2.22;;;1.00;;
53925;SDS011;39836;52.754;6.866;2023-07-20T13:43:18;3.38;;;1.10;;
53925;SDS011;39836;52.754;6.866;2023-07-20T13:45:44;2.60;;;1.27;;
53925;SDS011;39836;52.754;6.866;2023-07-20T13:48:09;3.80;;;1.48;;
53925;SDS011;39836;52.754;6.866;2023-07-20T13:50:35;2.08;;;1.13;;
53925;SDS011;39836;52.754;6.866;2023-07-20T13:53:01;2.70;;;1.42;;
53925;SDS011;39836;52.754;6.866;2023-07-20T13:55:28;3.17;;;1.10;;
53925;SDS011;39836;52.754;6.866;2023-07-20T13:57:56;3.60;;;1.63;;
53925;SDS011;39836;52.754;6.866;2023-07-20T14:00:21;3.30;;;1.17;;
53925;SDS011;39836;52.754;6.866;2023-07-20T14:02:47;1.58;;;1.08;;
53925;SDS011;39836;52.754;6.866;2023-07-20T14:05:13;4.10;;;1.15;;
53925;SDS011;39836;52.754;6.866;2023-07-20T14:07:40;3.40;;;1.30;;
53925;SDS011;39836;52.754;6.866;2023-07-20T14:10:08;2.65;;;1.00;;
53925;SDS011;39836;52.754;6.866;2023-07-20T14:12:34;1.75;;;0.85;;
53925;SDS011;39836;52.754;6.866;2023-07-20T14:14:59;2.30;;;0.90;;
53925;SDS011;39836;52.754;6.866;2023-07-20T14:17:25;1.50;;;0.70;;
53925;SDS011;39836;52.754;6.866;2023-07-20T14:19:51;3.97;;;0.82;;
53925;SDS011;39836;52.754;6.866;2023-07-20T14:22:17;3.75;;;0.80;;
53925;SDS011;39836;52.754;6.866;2023-07-20T14:24:43;1.88;;;0.93;;
53925;SDS011;39836;52.754;6.866;2023-07-20T14:27:09;2.15;;;0.80;;
53925;SDS011;39836;52.754;6.866;2023-07-20T14:29:36;2.58;;;1.02;;
53925;SDS011;39836;52.754;6.866;2023-07-20T14:32:02;2.47;;;1.10;;
53925;SDS011;39836;52.754;6.866;2023-07-20T14:34:29;4.35;;;1.73;;
53925;SDS011;39836;52.754;6.866;2023-07-20T14:36:55;3.45;;;1.52;;
53925;SDS011;39836;52.754;6.866;2023-07-20T14:39:23;5.80;;;1.65;;
53925;SDS011;39836;52.754;6.866;2023-07-20T14:41:49;3.85;;;1.65;;
53925;SDS011;39836;52.754;6.866;2023-07-20T14:44:16;4.10;;;1.33;;
53925;SDS011;39836;52.754;6.866;2023-07-20T14:46:41;4.82;;;1.73;;
53925;SDS011;39836;52.754;6.866;2023-07-20T14:49:07;4.65;;;1.70;;
53925;SDS011;39836;52.754;6.866;2023-07-20T14:51:33;3.45;;;1.48;;
53925;SDS011;39836;52.754;6.866;2023-07-20T14:54:01;3.40;;;1.60;;
53925;SDS011;39836;52.754;6.866;2023-07-20T14:56:27;5.70;;;2.00;;
53925;SDS011;39836;52.754;6.866;2023-07-20T14:58:52;3.50;;;1.27;;
53925;SDS011;39836;52.754;6.866;2023-07-20T15:01:18;3.30;;;1.45;;
53925;SDS011;39836;52.754;6.866;2023-07-20T15:03:44;4.60;;;1.35;;
53925;SDS011;39836;52.754;6.866;2023-07-20T15:06:12;4.70;;;1.17;;
53925;SDS011;39836;52.754;6.866;2023-07-20T15:08:38;3.28;;;1.50;;
53925;SDS011;39836;52.754;6.866;2023-07-20T15:11:04;4.07;;;1.60;;
53925;SDS011;39836;52.754;6.866;2023-07-20T15:13:29;3.45;;;1.30;;
53925;SDS011;39836;52.754;6.866;2023-07-20T15:15:55;5.57;;;1.10;;
53925;SDS011;39836;52.754;6.866;2023-07-20T15:18:20;4.60;;;1.60;;
53925;SDS011;39836;52.754;6.866;2023-07-20T15:20:46;5.22;;;1.10;;
53925;SDS011;39836;52.754;6.866;2023-07-20T15:23:13;4.85;;;1.30;;
53925;SDS011;39836;52.754;6.866;2023-07-20T15:25:39;3.50;;;1.00;;
53925;SDS011;39836;52.754;6.866;2023-07-20T15:28:05;6.25;;;1.50;;
53925;SDS011;39836;52.754;6.866;2023-07-20T15:30:31;3.58;;;1.27;;
53925;SDS011;39836;52.754;6.866;2023-07-20T15:32:56;3.45;;;1.30;;
53925;SDS011;39836;52.754;6.866;2023-07-20T15:35:23;2.78;;;1.20;;
53925;SDS011;39836;52.754;6.866;2023-07-20T15:37:49;3.10;;;1.35;;
53925;SDS011;39836;52.754;6.866;2023-07-20T15:40:14;5.57;;;1.75;;
53925;SDS011;39836;52.754;6.866;2023-07-20T15:42:40;3.53;;;1.48;;
53925;SDS011;39836;52.754;6.866;2023-07-20T15:45:06;4.05;;;1.50;;
53925;SDS011;39836;52.754;6.866;2023-07-20T15:47:32;4.18;;;1.52;;
53925;SDS011;39836;52.754;6.866;2023-07-20T15:49:58;6.03;;;1.40;;
53925;SDS011;39836;52.754;6.866;2023-07-20T15:52:23;4.90;;;1.55;;
53925;SDS011;39836;52.754;6.866;2023-07-20T15:54:49;3.38;;;1.48;;
53925;SDS011;39836;52.754;6.866;2023-07-20T15:57:16;3.00;;;1.23;;
53925;SDS011;39836;52.754;6.866;2023-07-20T15:59:42;5.10;;;1.50;;
53925;SDS011;39836;52.754;6.866;2023-07-20T16:02:08;4.97;;;1.40;;
53925;SDS011;39836;52.754;6.866;2023-07-20T16:04:33;3.90;;;1.65;;
53925;SDS011;39836;52.754;6.866;2023-07-20T16:06:59;6.03;;;1.90;;
53925;SDS011;39836;52.754;6.866;2023-07-20T16:09:25;2.85;;;1.42;;
53925;SDS011;39836;52.754;6.866;2023-07-20T16:11:51;3.80;;;1.60;;
53925;SDS011;39836;52.754;6.866;2023-07-20T16:14:17;3.13;;;1.58;;
53925;SDS011;39836;52.754;6.866;2023-07-20T16:16:43;6.72;;;1.52;;
53925;SDS011;39836;52.754;6.866;2023-07-20T16:19:09;4.00;;;1.52;;
53925;SDS011;39836;52.754;6.866;2023-07-20T16:21:35;4.22;;;1.35;;
53925;SDS011;39836;52.754;6.866;2023-07-20T16:24:00;4.43;;;1.80;;
53925;SDS011;39836;52.754;6.866;2023-07-20T16:26:26;5.18;;;1.50;;
53925;SDS011;39836;52.754;6.866;2023-07-20T16:28:52;3.95;;;1.80;;
53925;SDS011;39836;52.754;6.866;2023-07-20T16:31:17;5.43;;;1.70;;
53925;SDS011;39836;52.754;6.866;2023-07-20T16:33:44;2.92;;;1.50;;
53925;SDS011;39836;52.754;6.866;2023-07-20T16:36:11;7.22;;;1.63;;
53925;SDS011;39836;52.754;6.866;2023-07-20T16:38:38;5.05;;;1.52;;
53925;SDS011;39836;52.754;6.866;2023-07-20T16:41:05;4.30;;;1.35;;
53925;SDS011;39836;52.754;6.866;2023-07-20T16:43:32;3.72;;;1.77;;
53925;SDS011;39836;52.754;6.866;2023-07-20T16:46:01;5.97;;;1.70;;
53925;SDS011;39836;52.754;6.866;2023-07-20T16:48:28;4.18;;;1.50;;
53925;SDS011;39836;52.754;6.866;2023-07-20T16:50:54;3.45;;;1.40;;
53925;SDS011;39836;52.754;6.866;2023-07-20T16:53:21;4.18;;;1.70;;
53925;SDS011;39836;52.754;6.866;2023-07-20T16:55:51;5.53;;;1.30;;
53925;SDS011;39836;52.754;6.866;2023-07-20T16:58:18;5.68;;;1.55;;
53925;SDS011;39836;52.754;6.866;2023-07-20T17:00:46;5.00;;;1.40;;
53925;SDS011;39836;52.754;6.866;2023-07-20T17:03:12;4.50;;;1.50;;
53925;SDS011;39836;52.754;6.866;2023-07-20T17:05:38;3.88;;;1.40;;
53925;SDS011;39836;52.754;6.866;2023-07-20T17:08:05;6.90;;;1.63;;
53925;SDS011;39836;52.754;6.866;2023-07-20T17:10:31;6.40;;;1.73;;
53925;SDS011;39836;52.754;6.866;2023-07-20T17:12:57;3.80;;;1.65;;
53925;SDS011;39836;52.754;6.866;2023-07-20T17:15:23;5.15;;;1.85;;
53925;SDS011;39836;52.754;6.866;2023-07-20T17:17:48;4.95;;;1.58;;
53925;SDS011;39836;52.754;6.866;2023-07-20T17:20:18;3.08;;;1.60;;
53925;SDS011;39836;52.754;6.866;2023-07-20T17:22:44;2.90;;;1.42;;
53925;SDS011;39836;52.754;6.866;2023-07-20T17:25:10;6.03;;;1.58;;
53925;SDS011;39836;52.754;6.866;2023-07-20T17:27:36;5.88;;;1.40;;
53925;SDS011;39836;52.754;6.866;2023-07-20T17:30:03;3.85;;;1.77;;
53925;SDS011;39836;52.754;6.866;2023-07-20T17:32:29;5.32;;;1.50;;
53925;SDS011;39836;52.754;6.866;2023-07-20T17:34:55;3.53;;;1.73;;
53925;SDS011;39836;52.754;6.866;2023-07-20T17:37:21;6.68;;;1.48;;
53925;SDS011;39836;52.754;6.866;2023-07-20T17:39:49;3.75;;;1.60;;
53925;SDS011;39836;52.754;6.866;2023-07-20T17:42:15;3.80;;;1.40;;
53925;SDS011;39836;52.754;6.866;2023-07-20T17:44:41;4.00;;;1.67;;
53925;SDS011;39836;52.754;6.866;2023-07-20T17:47:07;8.52;;;1.52;;
53925;SDS011;39836;52.754;6.866;2023-07-20T17:49:33;3.67;;;1.63;;
53925;SDS011;39836;52.754;6.866;2023-07-20T17:51:59;4.95;;;1.73;;
53925;SDS011;39836;52.754;6.866;2023-07-20T17:54:25;4.38;;;1.52;;
53925;SDS011;39836;52.754;6.866;2023-07-20T17:56:50;3.88;;;1.60;;
53925;SDS011;39836;52.754;6.866;2023-07-20T17:59:16;7.63;;;2.05;;
53925;SDS011;39836;52.754;6.866;2023-07-20T18:01:42;4.25;;;1.60;;
53925;SDS011;39836;52.754;6.866;2023-07-20T18:04:07;5.95;;;1.70;;
53925;SDS011;39836;52.754;6.866;2023-07-20T18:06:33;6.72;;;1.70;;
53925;SDS011;39836;52.754;6.866;2023-07-20T18:08:59;5.43;;;2.00;;
53925;SDS011;39836;52.754;6.866;2023-07-20T18:11:24;7.38;;;1.70;;
53925;SDS011;39836;52.754;6.866;2023-07-20T18:13:50;3.72;;;1.50;;
53925;SDS011;39836;52.754;6.866;2023-07-20T18:16:16;5.97;;;1.42;;
53925;SDS011;39836;52.754;6.866;2023-07-20T18:18:41;3.50;;;1.60;;
53925;SDS011;39836;52.754;6.866;2023-07-20T18:21:07;5.43;;;1.70;;
53925;SDS011;39836;52.754;6.866;2023-07-20T18:23:33;5.60;;;2.05;;
53925;SDS011;39836;52.754;6.866;2023-07-20T18:25:58;4.55;;;1.80;;
53925;SDS011;39836;52.754;6.866;2023-07-20T18:28:24;5.72;;;1.92;;
53925;SDS011;39836;52.754;6.866;2023-07-20T18:30:50;5.22;;;1.90;;
53925;SDS011;39836;52.754;6.866;2023-07-20T18:33:16;3.53;;;1.70;;
53925;SDS011;39836;52.754;6.866;2023-07-20T18:35:42;4.32;;;1.80;;
53925;SDS011;39836;52.754;6.866;2023-07-20T18:38:07;4.80;;;2.00;;
53925;SDS011;39836;52.754;6.866;2023-07-20T18:40:34;5.22;;;2.05;;
53925;SDS011;39836;52.754;6.866;2023-07-20T18:43:00;4.20;;;2.13;;
53925;SDS011;39836;52.754;6.866;2023-07-20T18:45:26;8.93;;;2.03;;
53925;SDS011;39836;52.754;6.866;2023-07-20T18:47:51;3.42;;;1.60;;
53925;SDS011;39836;52.754;6.866;2023-07-20T18:50:19;4.07;;;1.98;;
53925;SDS011;39836;52.754;6.866;2023-07-20T18:52:45;4.40;;;1.73;;
53925;SDS011;39836;52.754;6.866;2023-07-20T18:55:11;4.38;;;2.08;;
53925;SDS011;39836;52.754;6.866;2023-07-20T18:57:37;4.43;;;1.73;;
53925;SDS011;39836;52.754;6.866;2023-07-20T19:00:03;4.38;;;1.70;;
53925;SDS011;39836;52.754;6.866;2023-07-20T19:02:44;5.03;;;1.83;;
53925;SDS011;39836;52.754;6.866;2023-07-20T19:06:13;4.55;;;1.75;;
53925;SDS011;39836;52.754;6.866;2023-07-20T19:13:43;3.10;;;1.60;;
53925;SDS011;39836;52.754;6.866;2023-07-20T19:16:35;4.63;;;2.15;;
53925;SDS011;39836;52.754;6.866;2023-07-20T19:27:32;3.05;;;1.73;;
53925;SDS011;39836;52.754;6.866;2023-07-20T19:45:46;3.22;;;1.70;;
53925;SDS011;39836;52.754;6.866;2023-07-20T19:48:49;5.72;;;1.88;;
53925;SDS011;39836;52.754;6.866;2023-07-20T19:51:26;5.03;;;1.80;;
53925;SDS011;39836;52.754;6.866;2023-07-20T19:57:24;4.90;;;2.20;;
53925;SDS011;39836;52.754;6.866;2023-07-20T20:00:02;7.40;;;2.20;;
53925;SDS011;39836;52.754;6.866;2023-07-20T20:28:55;5.78;;;2.72;;
53925;SDS011;39836;52.754;6.866;2023-07-20T20:34:50;9.10;;;2.47;;
53925;SDS011;39836;52.754;6.866;2023-07-20T21:58:57;6.15;;;2.58;;
53925;SDS011;39836;52.754;6.866;2023-07-20T22:01:26;6.13;;;1.85;;
53925;SDS011;39836;52.754;6.866;2023-07-20T22:04:04;6.63;;;2.58;;
53925;SDS011;39836;52.754;6.866;2023-07-20T22:06:51;5.30;;;1.98;;
53925;SDS011;39836;52.754;6.866;2023-07-20T22:09:17;6.10;;;2.50;;
53925;SDS011;39836;52.754;6.866;2023-07-20T22:11:43;7.30;;;2.47;;
53925;SDS011;39836;52.754;6.866;2023-07-20T22:14:09;6.20;;;2.15;;
